Terminal Aerodrome Forecast
Issued by NWS

Home | Current Version | Previous Version | Text Only | Print | Product List | Glossary On
Versions: 1 2 3 4 5 6 7 8 9 10 11 12 13 14 15
107
FTUS46 KPDT 010205 AAA
TAFDLS
TAF AMD
KDLS 010205Z 0102/0124 32010G20KT P6SM FEW080 SCT250
     FM010700 30010KT P6SM SCT200
     FM011500 VRB06KT P6SM SCT150
     FM012000 32014KT P6SM SCT100 BKN150=

USA.gov is the U.S. government's official web portal to all federal, state and local government web resources and services.